輕井澤町, 日本

2014年8月29日 17時00分 (GMT +0900)
Asamayama Fumoto | Change Station
CLOSE
Current Station
個人氣象站
Location: Karuizawa Town, NAGANO-KEN
海拔: 3658 ft
附近的氣象站

海拔 3658 ft 36.35 °N, 138.52 °E | Updated 11 seconds ago

Scattered Clouds
多雲時晴
64.6 °F
感覺像 64.6 °F
0.0
風 變化 風 來自 東北
Gusts 0.0 英里每小時

今日
高 -- | 低 -- °F
--% 降水機率
昨天
高 -- | 低 -- °F
Precip. -- 英寸
5:14 AM 6:18 PM
眉月, 12% visible
氣壓 29.98 英寸
能見度 6.2 英里
多雲 少數 5000 ft
多雲時晴 7000 ft
露點 60 °F
濕度 86%
降雨量 0.00 英寸
積雪深度 不適用。
紫外線 2 / 12
花粉 不適用。
空氣質素 不適用。
Flu Activity 不適用。
METAR RJAF 290700Z 15007KT 9999 FEW050 SCT070 BKN/// 25/14 Q1015

More Conditions Fewer Conditions

氣壓 29.98 英寸
能見度 6.2 英里
多雲 少數 5000 ft
多雲時晴 7000 ft
露點 60 °F
濕度 86%
降雨量 0.00 英寸
積雪深度 不適用。
紫外線 2 / 12
花粉 不適用。
空氣質素 不適用。
Flu Activity 不適用。
METAR RJAF 290700Z 15007KT 9999 FEW050 SCT070 BKN/// 25/14 Q1015

More Conditions Fewer Conditions

10-Day Weather Forecast

Almanac

天文

Aug. 29, 2014 昇起 降落
實際時間 05:14 JST 18:18 JST
民用曙暮光 04:47 JST 18:45 JST
航海曙暮光 04:16 JST 19:16 JST
天文學微明 03:43 JST 19:49 JST
月亮 08:20 JST 20:02 JST
可見光的長度 13h 57m
白晝時間
13h 04m
Tomorrow will be 2m 10s shorter.
眉月, 12% of the Moon is Illuminated
今日
眉月
9月 2
第一季
9月 8
滿月
9月 15
第四季
9月 24

昨天之最

國家高溫 國家低溫

Community

WunderPhotos

Upload Photos

1,748,197 照片已上傳!

Nearby

積雪量

Not available.

地震活動

城市 距離 時間和日期
附近沒有最近發生的地震活動。
顯示的最小幅度是2.5。

沿海水溫

地點 溫度
無任何天氣監測站報告

附近的氣象站